createdAt,value
2023-03-29T00:00:36.742Z,22.78
2023-03-29T00:03:05.510Z,22.77
2023-03-29T00:05:36.275Z,22.77
2023-03-29T00:08:05.129Z,22.77
2023-03-29T00:10:33.897Z,22.77
2023-03-29T00:13:02.454Z,22.76
2023-03-29T00:15:31.390Z,22.77
2023-03-29T00:17:59.869Z,22.76
2023-03-29T00:20:29.018Z,22.77
2023-03-29T00:22:58.868Z,22.77
2023-03-29T00:25:27.370Z,22.76
2023-03-29T00:27:55.880Z,22.77
2023-03-29T00:30:24.363Z,22.76
2023-03-29T00:32:52.850Z,22.76
2023-03-29T00:35:21.501Z,22.76
2023-03-29T00:37:53.155Z,22.76
2023-03-29T00:40:23.093Z,22.76
2023-03-29T00:42:51.581Z,22.76
2023-03-29T00:45:21.543Z,22.76
2023-03-29T00:47:51.826Z,22.76
2023-03-29T00:50:25.956Z,22.76
2023-03-29T00:52:57.876Z,22.76
2023-03-29T00:55:29.257Z,22.75
2023-03-29T00:57:57.876Z,22.75
2023-03-29T01:00:31.962Z,22.75
2023-03-29T01:03:01.261Z,22.75
2023-03-29T01:05:31.989Z,22.74
2023-03-29T01:08:02.510Z,22.74
2023-03-29T01:10:34.690Z,22.74
2023-03-29T01:13:06.547Z,22.73
2023-03-29T01:15:34.943Z,22.75
2023-03-29T01:18:03.387Z,22.74
2023-03-29T01:20:44.262Z,22.74
2023-03-29T01:23:31.597Z,22.73
2023-03-29T01:26:06.050Z,22.74
2023-03-29T01:28:37.550Z,22.74
2023-03-29T01:31:08.615Z,22.74
2023-03-29T01:33:40.233Z,22.73
2023-03-29T01:36:13.531Z,22.74
2023-03-29T01:38:43.701Z,22.74
2023-03-29T01:41:12.297Z,22.73
2023-03-29T01:43:44.326Z,22.73
2023-03-29T01:46:16.237Z,22.72
2023-03-29T01:48:48.425Z,22.73
2023-03-29T01:51:18.619Z,22.74
2023-03-29T01:53:49.400Z,22.73
2023-03-29T01:56:19.969Z,22.71
2023-03-29T01:58:52.217Z,22.72
2023-03-29T02:01:23.526Z,22.72
2023-03-29T02:03:54.797Z,22.72
2023-03-29T02:06:24.878Z,22.72
2023-03-29T02:08:53.395Z,22.71
2023-03-29T02:11:22.026Z,22.72
2023-03-29T02:13:52.000Z,22.72
2023-03-29T02:16:20.521Z,22.71
2023-03-29T02:18:49.991Z,22.72
2023-03-29T02:21:22.381Z,22.72
2023-03-29T02:23:50.843Z,22.71
2023-03-29T02:26:19.644Z,22.71
2023-03-29T02:28:48.121Z,22.71
2023-03-29T02:31:21.585Z,22.72
2023-03-29T02:33:53.263Z,22.72
2023-03-29T02:36:24.304Z,22.71
2023-03-29T02:38:53.355Z,22.72
2023-03-29T02:41:22.045Z,22.71
2023-03-29T02:43:50.542Z,22.72
2023-03-29T02:46:20.590Z,22.71
2023-03-29T02:48:49.692Z,22.71
2023-03-29T02:51:20.983Z,22.71
2023-03-29T02:53:53.401Z,22.71
2023-03-29T02:56:21.909Z,22.72
2023-03-29T02:58:50.386Z,22.70
2023-03-29T03:01:23.142Z,22.71
2023-03-29T03:03:52.119Z,22.71
2023-03-29T03:06:21.739Z,22.70
2023-03-29T03:08:50.329Z,22.71
2023-03-29T03:11:18.811Z,22.71
2023-03-29T03:13:47.210Z,22.71
2023-03-29T03:16:15.680Z,22.71
2023-03-29T03:18:46.377Z,22.71
2023-03-29T03:21:14.826Z,22.70
2023-03-29T03:23:43.718Z,22.71
2023-03-29T03:26:12.194Z,22.70
2023-03-29T03:28:40.883Z,22.71
2023-03-29T03:31:09.416Z,22.69
2023-03-29T03:33:37.890Z,22.71
2023-03-29T03:36:10.249Z,22.70
2023-03-29T03:38:38.987Z,22.69
2023-03-29T03:41:08.291Z,22.70
2023-03-29T03:43:36.891Z,22.70
2023-03-29T03:46:06.013Z,22.70
2023-03-29T03:48:34.516Z,22.70
2023-03-29T03:51:03.654Z,22.70
2023-03-29T03:53:33.970Z,22.70
2023-03-29T03:56:08.786Z,22.69
2023-03-29T03:58:37.397Z,22.70
2023-03-29T04:01:08.441Z,22.70
2023-03-29T04:03:37.725Z,22.69
2023-03-29T04:06:07.013Z,22.69
2023-03-29T04:08:36.861Z,22.69
2023-03-29T04:11:05.745Z,22.69
2023-03-29T04:13:34.215Z,22.68
2023-03-29T04:16:03.927Z,22.68
2023-03-29T04:18:32.579Z,22.68
2023-03-29T04:21:01.461Z,22.68
2023-03-29T04:23:30.073Z,22.68
2023-03-29T04:25:59.900Z,22.67
2023-03-29T04:28:28.717Z,22.68
2023-03-29T04:30:57.510Z,22.69
2023-03-29T04:33:25.982Z,22.68
2023-03-29T04:35:54.427Z,22.68
2023-03-29T04:38:23.840Z,22.69
2023-03-29T04:40:52.385Z,22.67
2023-03-29T04:43:22.750Z,22.68
2023-03-29T04:48:19.882Z,22.68
2023-03-29T04:50:48.411Z,22.68
2023-03-29T04:53:17.136Z,22.69
2023-03-29T04:55:47.182Z,22.70
2023-03-29T04:58:15.593Z,22.69
2023-03-29T05:00:46.011Z,22.69
2023-03-29T05:03:14.741Z,22.70
2023-03-29T05:05:43.194Z,22.70
2023-03-29T05:08:12.383Z,22.71
2023-03-29T05:10:43.531Z,22.71
2023-03-29T05:13:12.003Z,22.72
2023-03-29T05:15:41.335Z,22.71
2023-03-29T05:18:11.270Z,22.74
2023-03-29T05:20:40.644Z,22.78
2023-03-29T05:23:09.915Z,22.79
2023-03-29T05:25:38.293Z,22.79
2023-03-29T05:28:06.786Z,22.80
2023-03-29T05:30:35.238Z,22.78
2023-03-29T05:33:05.747Z,22.71
2023-03-29T05:35:36.776Z,22.69
2023-03-29T05:38:05.633Z,22.70
2023-03-29T05:40:34.206Z,22.78
2023-03-29T05:43:02.948Z,22.69
2023-03-29T05:48:01.495Z,22.72
2023-03-29T05:50:30.294Z,22.70
2023-03-29T05:53:00.138Z,22.72
2023-03-29T05:55:28.683Z,22.72
2023-03-29T05:57:57.254Z,22.73
2023-03-29T06:00:26.013Z,22.75
2023-03-29T06:02:59.276Z,22.77
2023-03-29T06:05:35.121Z,22.77
2023-03-29T06:08:05.076Z,22.81
2023-03-29T06:10:33.874Z,22.79
2023-03-29T06:13:02.367Z,22.83
2023-03-29T06:15:30.816Z,22.82
2023-03-29T06:17:59.441Z,22.82
2023-03-29T06:20:28.352Z,22.82
2023-03-29T06:22:56.991Z,22.85
2023-03-29T06:25:26.796Z,22.87
2023-03-29T06:27:55.534Z,22.87
2023-03-29T06:30:24.158Z,22.88
2023-03-29T06:32:52.860Z,22.85
2023-03-29T06:35:22.014Z,22.85
2023-03-29T06:37:50.546Z,22.85
2023-03-29T06:40:19.887Z,22.85
2023-03-29T06:42:51.002Z,22.87
2023-03-29T06:45:23.207Z,22.88
2023-03-29T06:47:52.750Z,22.86
2023-03-29T06:50:22.357Z,22.86
2023-03-29T06:52:51.263Z,22.86
2023-03-29T06:55:20.795Z,22.87
2023-03-29T06:57:50.720Z,22.87
2023-03-29T07:00:28.126Z,22.88
2023-03-29T07:02:58.127Z,22.90
2023-03-29T07:05:28.036Z,22.89
2023-03-29T07:07:57.190Z,22.89
2023-03-29T07:10:28.158Z,22.89
2023-03-29T07:12:58.079Z,22.89
2023-03-29T07:15:27.786Z,22.89
2023-03-29T07:17:57.536Z,22.89
2023-03-29T07:20:27.259Z,22.91
2023-03-29T07:22:56.205Z,22.89
2023-03-29T07:25:25.102Z,22.91
2023-03-29T07:27:53.876Z,22.92
2023-03-29T07:30:27.055Z,22.93
2023-03-29T07:32:58.825Z,22.92
2023-03-29T07:35:27.963Z,22.92
2023-03-29T07:37:57.457Z,22.93
2023-03-29T07:40:26.408Z,22.92
2023-03-29T07:42:56.838Z,22.96
2023-03-29T07:45:29.126Z,22.91
2023-03-29T07:47:58.909Z,22.90
2023-03-29T07:50:28.047Z,22.93
2023-03-29T07:52:56.964Z,22.95
2023-03-29T07:55:25.600Z,22.97
2023-03-29T07:57:54.180Z,22.97
2023-03-29T08:00:25.170Z,22.98
2023-03-29T08:02:55.923Z,22.97
2023-03-29T08:05:37.968Z,22.99
2023-03-29T08:08:09.693Z,22.99
2023-03-29T08:10:39.580Z,23.00
2023-03-29T08:13:09.906Z,22.99
2023-03-29T08:15:39.213Z,23.00
2023-03-29T08:18:09.372Z,23.01
2023-03-29T08:20:37.981Z,23.01
2023-03-29T08:23:06.512Z,23.01
2023-03-29T08:25:35.346Z,23.01
2023-03-29T08:28:03.844Z,23.01
2023-03-29T08:30:32.308Z,23.01
2023-03-29T08:33:01.424Z,23.01
2023-03-29T08:35:31.631Z,23.01
2023-03-29T08:38:00.024Z,22.99
2023-03-29T08:40:30.335Z,22.99
2023-03-29T08:43:26.051Z,23.01
2023-03-29T08:46:11.082Z,23.01
2023-03-29T08:48:42.334Z,23.01
2023-03-29T08:51:23.679Z,23.03
2023-03-29T08:53:53.762Z,23.04
2023-03-29T08:56:25.053Z,23.04
2023-03-29T08:58:53.861Z,23.04
2023-03-29T09:01:22.448Z,23.03
2023-03-29T09:03:54.561Z,23.02
2023-03-29T09:06:25.030Z,23.05
2023-03-29T09:08:53.905Z,23.04
2023-03-29T09:11:49.112Z,23.04
2023-03-29T09:14:44.681Z,23.05
2023-03-29T09:17:21.666Z,23.05
2023-03-29T09:19:54.859Z,23.05
2023-03-29T09:22:28.455Z,23.06
2023-03-29T09:25:05.600Z,23.06
2023-03-29T09:27:36.806Z,23.06
2023-03-29T09:30:14.555Z,23.06
2023-03-29T09:32:48.615Z,23.05
2023-03-29T09:35:22.397Z,23.06
2023-03-29T09:37:52.930Z,23.04
2023-03-29T09:40:24.845Z,23.02
2023-03-29T09:42:53.625Z,23.02
2023-03-29T09:45:22.163Z,23.05
2023-03-29T09:47:53.445Z,23.05
2023-03-29T09:50:31.378Z,23.05
2023-03-29T09:53:02.228Z,23.04
2023-03-29T09:55:34.099Z,23.07
2023-03-29T09:58:03.623Z,23.07
2023-03-29T10:00:32.073Z,23.07
2023-03-29T10:03:01.072Z,23.07
2023-03-29T10:05:31.053Z,23.08
2023-03-29T10:08:02.280Z,23.08
2023-03-29T10:10:31.958Z,23.08
2023-03-29T10:13:02.756Z,23.09
2023-03-29T10:15:31.621Z,23.06
2023-03-29T10:18:00.988Z,23.07
2023-03-29T10:20:29.630Z,23.08
2023-03-29T10:22:59.327Z,23.07
2023-03-29T10:25:31.380Z,23.07
2023-03-29T10:28:05.514Z,23.06
2023-03-29T10:30:35.892Z,23.05
2023-03-29T10:33:05.317Z,23.05
2023-03-29T10:35:35.964Z,23.04
2023-03-29T10:38:06.643Z,23.06
2023-03-29T10:40:36.910Z,23.06
2023-03-29T10:43:14.686Z,23.06
2023-03-29T10:45:43.377Z,23.06
2023-03-29T10:48:13.149Z,23.05
2023-03-29T10:50:41.625Z,23.05
2023-03-29T10:53:16.097Z,23.05
2023-03-29T10:55:49.232Z,23.05
2023-03-29T10:58:27.594Z,23.06
2023-03-29T11:00:57.702Z,23.04
2023-03-29T11:04:00.978Z,23.05
2023-03-29T11:06:33.351Z,23.05
2023-03-29T11:09:05.141Z,23.04
2023-03-29T11:12:12.283Z,23.03
2023-03-29T11:14:52.665Z,23.04
2023-03-29T11:17:31.022Z,23.00
2023-03-29T11:20:07.128Z,23.03
2023-03-29T11:22:42.992Z,23.01
2023-03-29T11:25:21.866Z,23.03
2023-03-29T11:27:55.666Z,23.02
2023-03-29T11:30:27.093Z,23.02
2023-03-29T11:33:01.774Z,23.02
2023-03-29T11:35:40.476Z,23.01
2023-03-29T11:38:18.594Z,23.02
2023-03-29T11:40:54.477Z,22.99
2023-03-29T11:43:27.717Z,22.98
2023-03-29T11:45:59.553Z,22.98
2023-03-29T11:48:32.635Z,22.96
2023-03-29T11:51:04.822Z,22.95
2023-03-29T11:53:37.926Z,22.93
2023-03-29T11:56:13.297Z,22.92
2023-03-29T11:58:46.094Z,22.92
2023-03-29T12:01:16.193Z,22.91
2023-03-29T12:03:47.986Z,22.90
2023-03-29T12:06:20.237Z,22.92
2023-03-29T12:08:52.276Z,22.90
2023-03-29T12:11:25.345Z,22.90
2023-03-29T12:13:58.638Z,22.89
2023-03-29T12:16:31.444Z,22.89
2023-03-29T12:19:02.752Z,22.89
2023-03-29T12:21:31.414Z,22.88
2023-03-29T12:23:59.906Z,22.90
2023-03-29T12:26:45.606Z,22.89
2023-03-29T12:29:33.021Z,22.88
2023-03-29T12:32:12.525Z,22.87
2023-03-29T12:34:54.152Z,22.87
2023-03-29T12:37:32.424Z,22.87
2023-03-29T12:40:13.126Z,22.86
2023-03-29T12:42:49.080Z,22.85
2023-03-29T12:45:21.758Z,22.85
2023-03-29T12:47:52.416Z,22.85
2023-03-29T12:50:28.486Z,22.84
2023-03-29T12:53:08.174Z,22.84
2023-03-29T12:55:49.804Z,22.84
2023-03-29T12:58:38.456Z,22.84
2023-03-29T13:01:10.801Z,22.84
2023-03-29T13:03:48.824Z,22.84
2023-03-29T13:06:30.526Z,22.83
2023-03-29T13:09:01.504Z,22.84
2023-03-29T13:11:34.193Z,22.84
2023-03-29T13:14:05.004Z,22.84
2023-03-29T13:16:36.274Z,22.83
2023-03-29T13:19:19.742Z,22.83
2023-03-29T13:21:56.413Z,22.83
2023-03-29T13:24:54.358Z,22.82
2023-03-29T13:27:30.065Z,22.84
2023-03-29T13:30:27.864Z,22.83
2023-03-29T13:33:07.503Z,22.82
2023-03-29T13:35:43.720Z,22.82
2023-03-29T13:38:19.688Z,22.84
2023-03-29T13:41:02.522Z,22.83
2023-03-29T13:43:34.607Z,22.82
2023-03-29T13:46:25.643Z,22.83
2023-03-29T13:49:01.223Z,22.81
2023-03-29T13:51:40.023Z,22.82
2023-03-29T13:54:21.530Z,22.81
2023-03-29T13:57:05.447Z,22.82
2023-03-29T13:59:39.556Z,22.81
2023-03-29T14:02:08.206Z,22.82
2023-03-29T14:04:42.043Z,22.82
2023-03-29T14:07:12.035Z,22.80
2023-03-29T14:09:44.100Z,22.80
2023-03-29T14:12:15.335Z,22.80
2023-03-29T14:14:57.847Z,22.81
2023-03-29T14:17:27.314Z,22.78
2023-03-29T14:19:59.114Z,22.81
2023-03-29T14:22:31.619Z,22.80
2023-03-29T14:25:04.057Z,22.79
2023-03-29T14:27:32.895Z,22.78
2023-03-29T14:30:01.496Z,22.77
2023-03-29T14:32:31.428Z,22.77
2023-03-29T14:35:02.869Z,22.76
2023-03-29T14:37:32.384Z,22.75
2023-03-29T14:40:01.233Z,22.75
2023-03-29T14:42:30.281Z,22.78
2023-03-29T14:44:59.943Z,22.79
2023-03-29T14:47:29.545Z,22.75
2023-03-29T14:50:00.915Z,22.76
2023-03-29T14:52:31.249Z,22.77
2023-03-29T14:55:01.025Z,22.75
2023-03-29T14:57:34.360Z,22.76
2023-03-29T15:00:13.472Z,22.78
2023-03-29T15:02:50.517Z,22.77
2023-03-29T15:05:31.865Z,22.79
2023-03-29T15:08:02.324Z,22.81
2023-03-29T15:10:33.157Z,22.79
2023-03-29T15:13:03.098Z,22.77
2023-03-29T15:15:33.432Z,22.78
2023-03-29T15:18:02.329Z,22.77
2023-03-29T15:20:33.386Z,22.80
2023-03-29T15:23:04.743Z,22.83
2023-03-29T15:25:37.438Z,22.85
2023-03-29T15:28:06.396Z,22.83
2023-03-29T15:30:36.736Z,22.82
2023-03-29T15:33:20.606Z,22.81
2023-03-29T15:35:52.100Z,22.81
2023-03-29T15:38:30.206Z,22.80
2023-03-29T15:41:05.368Z,22.83
2023-03-29T15:43:33.883Z,22.83
2023-03-29T15:46:02.636Z,22.83
2023-03-29T15:48:33.780Z,22.82
2023-03-29T15:51:06.208Z,22.79
2023-03-29T15:53:36.960Z,22.80
2023-03-29T15:56:08.066Z,22.82
2023-03-29T15:58:36.740Z,22.86
2023-03-29T16:01:13.377Z,22.89
2023-03-29T16:03:42.340Z,22.87
2023-03-29T16:06:12.533Z,22.87
2023-03-29T16:08:42.493Z,22.88
2023-03-29T16:11:11.731Z,22.87
2023-03-29T16:13:40.443Z,22.85
2023-03-29T16:16:11.696Z,22.80
2023-03-29T16:18:40.571Z,22.82
2023-03-29T16:21:12.664Z,22.85
2023-03-29T16:23:42.996Z,22.84
2023-03-29T16:26:13.345Z,22.83
2023-03-29T16:28:42.322Z,22.83
2023-03-29T16:31:11.704Z,22.84
2023-03-29T16:33:40.496Z,22.84
2023-03-29T16:36:10.107Z,22.87
2023-03-29T16:38:38.739Z,22.87
2023-03-29T16:41:08.898Z,22.86
2023-03-29T16:43:38.822Z,22.87
2023-03-29T16:46:09.019Z,22.89
2023-03-29T16:48:38.396Z,22.94
2023-03-29T16:51:08.148Z,22.91
2023-03-29T16:53:36.831Z,22.90
2023-03-29T16:56:06.206Z,22.90
2023-03-29T16:58:36.433Z,22.91
2023-03-29T17:01:12.356Z,22.90
2023-03-29T17:03:41.291Z,22.89
2023-03-29T17:06:10.905Z,22.89
2023-03-29T17:08:39.570Z,22.89
2023-03-29T17:11:08.418Z,22.91
2023-03-29T17:13:39.010Z,22.90
2023-03-29T17:16:08.918Z,22.88
2023-03-29T17:18:37.945Z,22.87
2023-03-29T17:21:07.818Z,22.86
2023-03-29T17:23:36.550Z,22.87
2023-03-29T17:26:05.998Z,22.87
2023-03-29T17:28:34.998Z,22.86
2023-03-29T17:31:08.284Z,22.86
2023-03-29T17:33:37.141Z,22.85
2023-03-29T17:36:07.578Z,22.86
2023-03-29T17:38:38.124Z,22.86
2023-03-29T17:41:08.523Z,22.88
2023-03-29T17:43:37.218Z,22.89
2023-03-29T17:46:08.124Z,22.88
2023-03-29T17:48:36.915Z,22.87
2023-03-29T17:51:06.012Z,22.85
2023-03-29T17:53:34.611Z,22.85
2023-03-29T17:56:03.700Z,22.83
2023-03-29T17:58:32.796Z,22.86
2023-03-29T18:01:03.617Z,22.89
2023-03-29T18:03:33.714Z,22.85
2023-03-29T18:06:02.798Z,22.86
2023-03-29T18:08:31.720Z,22.88
2023-03-29T18:11:07.862Z,22.85
2023-03-29T18:13:36.554Z,22.88
2023-03-29T18:16:07.186Z,22.90
2023-03-29T18:18:37.454Z,22.88
2023-03-29T18:21:07.074Z,22.90
2023-03-29T18:23:35.881Z,22.91
2023-03-29T18:26:05.893Z,22.94
2023-03-29T18:28:34.857Z,22.95
2023-03-29T18:31:03.784Z,22.97
2023-03-29T18:33:35.353Z,22.96
2023-03-29T18:36:09.174Z,22.98
2023-03-29T18:38:40.588Z,22.97
2023-03-29T18:41:09.606Z,22.91
2023-03-29T18:43:39.240Z,22.93
2023-03-29T18:46:08.116Z,22.90
2023-03-29T18:48:39.090Z,22.91
2023-03-29T18:51:09.497Z,22.90
2023-03-29T18:53:38.901Z,22.91
2023-03-29T18:56:08.246Z,22.91
2023-03-29T18:58:36.764Z,22.90
2023-03-29T19:01:06.526Z,22.91
2023-03-29T19:03:35.649Z,22.91
2023-03-29T19:06:04.688Z,22.91
2023-03-29T19:08:36.780Z,22.88
2023-03-29T19:11:07.543Z,22.91
2023-03-29T19:13:36.229Z,22.89
2023-03-29T19:16:05.571Z,22.89
2023-03-29T19:18:34.353Z,22.89
2023-03-29T19:21:02.875Z,22.89
2023-03-29T19:23:31.636Z,22.88
2023-03-29T19:26:02.759Z,22.88
2023-03-29T19:28:31.582Z,22.88
2023-03-29T19:31:00.800Z,22.87
2023-03-29T19:33:29.508Z,22.88
2023-03-29T19:35:58.208Z,22.87
2023-03-29T19:38:26.718Z,22.87
2023-03-29T19:40:55.223Z,22.88
2023-03-29T19:43:25.293Z,22.87
2023-03-29T19:45:53.835Z,22.87
2023-03-29T19:48:24.173Z,22.87
2023-03-29T19:50:53.209Z,22.88
2023-03-29T19:53:23.313Z,22.86
2023-03-29T19:55:52.512Z,22.87
2023-03-29T19:58:21.818Z,22.87
2023-03-29T20:00:53.307Z,22.86
2023-03-29T20:03:22.380Z,22.87
2023-03-29T20:05:50.945Z,22.88
2023-03-29T20:08:19.388Z,22.89
2023-03-29T20:10:47.914Z,22.88
2023-03-29T20:13:24.522Z,22.87
2023-03-29T20:16:01.727Z,22.87
2023-03-29T20:18:30.418Z,22.87
2023-03-29T20:20:59.102Z,22.85
2023-03-29T20:23:27.801Z,22.87
2023-03-29T20:25:57.173Z,22.87
2023-03-29T20:28:25.742Z,22.85
2023-03-29T20:30:54.374Z,22.85
2023-03-29T20:33:24.301Z,22.85
2023-03-29T20:35:52.827Z,22.84
2023-03-29T20:38:21.720Z,22.84
2023-03-29T20:40:50.202Z,22.83
2023-03-29T20:43:20.234Z,22.83
2023-03-29T20:45:53.851Z,22.82
2023-03-29T20:48:24.943Z,22.82
2023-03-29T20:50:54.345Z,22.81
2023-03-29T20:53:22.826Z,22.81
2023-03-29T20:55:51.797Z,22.81
2023-03-29T20:58:20.486Z,22.80
2023-03-29T21:00:50.376Z,22.80
2023-03-29T21:03:19.774Z,22.80
2023-03-29T21:05:50.387Z,22.79
2023-03-29T21:08:18.928Z,22.80
2023-03-29T21:10:49.998Z,22.80
2023-03-29T21:13:18.570Z,22.79
2023-03-29T21:15:47.585Z,22.79
2023-03-29T21:18:16.157Z,22.78
2023-03-29T21:20:45.315Z,22.78
2023-03-29T21:23:15.243Z,22.78
2023-03-29T21:25:44.024Z,22.77
2023-03-29T21:28:13.457Z,22.77
2023-03-29T21:30:41.872Z,22.76
2023-03-29T21:33:10.537Z,22.76
2023-03-29T21:35:41.644Z,22.76
2023-03-29T21:38:10.122Z,22.79
2023-03-29T21:40:39.953Z,22.79
2023-03-29T21:43:08.416Z,22.80
2023-03-29T21:45:36.932Z,22.80
2023-03-29T21:48:05.864Z,22.81
2023-03-29T21:50:34.492Z,22.80
2023-03-29T21:53:03.064Z,22.80
2023-03-29T21:55:34.149Z,22.80
2023-03-29T21:58:04.336Z,22.81
2023-03-29T22:00:33.179Z,22.80
2023-03-29T22:03:01.881Z,22.79
2023-03-29T22:05:30.707Z,22.80
2023-03-29T22:07:59.134Z,22.79
2023-03-29T22:10:27.756Z,22.79
2023-03-29T22:12:56.216Z,22.79
2023-03-29T22:15:26.061Z,22.80
2023-03-29T22:17:57.703Z,22.79
2023-03-29T22:20:27.809Z,22.79
2023-03-29T22:22:56.405Z,22.79
2023-03-29T22:25:24.815Z,22.79
2023-03-29T22:27:53.330Z,22.79
2023-03-29T22:30:22.990Z,22.79
2023-03-29T22:32:52.980Z,22.79
2023-03-29T22:35:21.572Z,22.78
2023-03-29T22:37:50.030Z,22.78
2023-03-29T22:40:18.756Z,22.78
2023-03-29T22:42:47.213Z,22.77
2023-03-29T22:45:15.805Z,22.78
2023-03-29T22:47:44.419Z,22.79
2023-03-29T22:50:14.502Z,22.78
2023-03-29T22:52:42.952Z,22.78
2023-03-29T22:55:11.810Z,22.77
2023-03-29T22:57:40.255Z,22.77
2023-03-29T23:00:11.619Z,22.77
2023-03-29T23:02:40.207Z,22.77
2023-03-29T23:05:09.804Z,22.77
2023-03-29T23:07:39.749Z,22.77
2023-03-29T23:10:10.212Z,22.78
2023-03-29T23:12:39.352Z,22.77
2023-03-29T23:15:09.776Z,22.76
2023-03-29T23:17:38.258Z,22.77
2023-03-29T23:20:08.878Z,22.76
2023-03-29T23:22:39.846Z,22.78
2023-03-29T23:25:09.431Z,22.77
2023-03-29T23:27:37.916Z,22.77
2023-03-29T23:30:09.659Z,22.76
2023-03-29T23:32:38.106Z,22.77
2023-03-29T23:35:07.614Z,22.76
2023-03-29T23:37:36.142Z,22.76
2023-03-29T23:40:10.306Z,22.76
2023-03-29T23:42:39.347Z,22.77
2023-03-29T23:45:09.949Z,22.76
2023-03-29T23:47:38.711Z,22.77
2023-03-29T23:50:09.600Z,22.75
2023-03-29T23:52:38.265Z,22.76
2023-03-29T23:55:10.073Z,22.77
2023-03-29T23:57:38.613Z,22.78
